sensor_id;sensor_type;location;lat;lon;timestamp;temperature;humidity
37285;DHT22;23172;53.550;9.964;2024-03-25T00:00:37;9.70;97.60
37285;DHT22;23172;53.550;9.964;2024-03-25T00:05:39;9.60;97.60
37285;DHT22;23172;53.550;9.964;2024-03-25T00:10:42;9.60;97.40
37285;DHT22;23172;53.550;9.964;2024-03-25T00:15:44;9.60;97.40
37285;DHT22;23172;53.550;9.964;2024-03-25T00:20:46;9.60;97.30
37285;DHT22;23172;53.550;9.964;2024-03-25T00:25:49;9.60;97.20
37285;DHT22;23172;53.550;9.964;2024-03-25T00:30:51;9.60;97.00
37285;DHT22;23172;53.550;9.964;2024-03-25T00:35:53;9.60;96.80
37285;DHT22;23172;53.550;9.964;2024-03-25T00:40:56;9.60;96.60
37285;DHT22;23172;53.550;9.964;2024-03-25T00:45:58;9.60;96.60
37285;DHT22;23172;53.550;9.964;2024-03-25T00:51:00;9.60;96.80
37285;DHT22;23172;53.550;9.964;2024-03-25T00:56:03;9.60;96.90
37285;DHT22;23172;53.550;9.964;2024-03-25T01:01:05;9.70;96.90
37285;DHT22;23172;53.550;9.964;2024-03-25T01:06:07;9.60;97.10
37285;DHT22;23172;53.550;9.964;2024-03-25T01:11:10;9.60;97.20
37285;DHT22;23172;53.550;9.964;2024-03-25T01:16:12;9.60;97.30
37285;DHT22;23172;53.550;9.964;2024-03-25T01:21:14;9.60;97.30
37285;DHT22;23172;53.550;9.964;2024-03-25T01:26:18;9.60;97.40
37285;DHT22;23172;53.550;9.964;2024-03-25T01:31:20;9.60;97.50
37285;DHT22;23172;53.550;9.964;2024-03-25T01:36:22;9.70;97.60
37285;DHT22;23172;53.550;9.964;2024-03-25T01:41:25;9.60;97.70
37285;DHT22;23172;53.550;9.964;2024-03-25T01:46:27;9.60;97.70
37285;DHT22;23172;53.550;9.964;2024-03-25T01:51:29;9.60;98.20
37285;DHT22;23172;53.550;9.964;2024-03-25T01:56:36;9.60;97.80
37285;DHT22;23172;53.550;9.964;2024-03-25T02:01:41;9.60;97.90
37285;DHT22;23172;53.550;9.964;2024-03-25T02:06:44;9.60;97.90
37285;DHT22;23172;53.550;9.964;2024-03-25T02:11:48;9.60;97.90
37285;DHT22;23172;53.550;9.964;2024-03-25T02:16:50;9.60;98.00
37285;DHT22;23172;53.550;9.964;2024-03-25T02:21:52;9.60;98.20
37285;DHT22;23172;53.550;9.964;2024-03-25T02:26:55;9.60;98.20
37285;DHT22;23172;53.550;9.964;2024-03-25T02:31:57;9.60;98.20
37285;DHT22;23172;53.550;9.964;2024-03-25T02:36:59;9.60;98.20
37285;DHT22;23172;53.550;9.964;2024-03-25T02:42:03;9.60;98.20
37285;DHT22;23172;53.550;9.964;2024-03-25T02:47:05;9.50;98.00
37285;DHT22;23172;53.550;9.964;2024-03-25T02:52:07;9.50;97.90
37285;DHT22;23172;53.550;9.964;2024-03-25T02:57:10;9.40;97.90
37285;DHT22;23172;53.550;9.964;2024-03-25T03:02:12;9.40;98.00
37285;DHT22;23172;53.550;9.964;2024-03-25T03:07:14;9.40;97.90
37285;DHT22;23172;53.550;9.964;2024-03-25T03:12:17;9.40;98.00
37285;DHT22;23172;53.550;9.964;2024-03-25T03:17:19;9.50;98.00
37285;DHT22;23172;53.550;9.964;2024-03-25T03:22:21;9.50;98.10
37285;DHT22;23172;53.550;9.964;2024-03-25T03:27:24;9.50;98.00
37285;DHT22;23172;53.550;9.964;2024-03-25T03:32:26;9.50;97.90
37285;DHT22;23172;53.550;9.964;2024-03-25T03:37:28;9.50;97.90
37285;DHT22;23172;53.550;9.964;2024-03-25T03:42:31;9.40;97.80
37285;DHT22;23172;53.550;9.964;2024-03-25T03:47:33;9.50;97.80
37285;DHT22;23172;53.550;9.964;2024-03-25T03:52:34;9.50;97.70
37285;DHT22;23172;53.550;9.964;2024-03-25T03:57:38;9.50;97.50
37285;DHT22;23172;53.550;9.964;2024-03-25T04:02:39;9.40;97.30
37285;DHT22;23172;53.550;9.964;2024-03-25T04:13:06;9.40;96.90
37285;DHT22;23172;53.550;9.964;2024-03-25T04:18:08;9.30;96.70
37285;DHT22;23172;53.550;9.964;2024-03-25T04:23:11;9.30;96.80
37285;DHT22;23172;53.550;9.964;2024-03-25T04:28:14;9.40;96.80
37285;DHT22;23172;53.550;9.964;2024-03-25T04:33:16;9.40;96.60
37285;DHT22;23172;53.550;9.964;2024-03-25T04:38:19;9.40;96.40
37285;DHT22;23172;53.550;9.964;2024-03-25T04:43:21;9.40;96.50
37285;DHT22;23172;53.550;9.964;2024-03-25T04:48:22;9.40;96.50
37285;DHT22;23172;53.550;9.964;2024-03-25T04:53:23;9.40;96.50
37285;DHT22;23172;53.550;9.964;2024-03-25T04:58:25;9.40;96.40
37285;DHT22;23172;53.550;9.964;2024-03-25T05:03:26;9.40;96.40
37285;DHT22;23172;53.550;9.964;2024-03-25T05:08:27;9.40;96.80
37285;DHT22;23172;53.550;9.964;2024-03-25T05:13:29;9.40;96.70
37285;DHT22;23172;53.550;9.964;2024-03-25T05:18:30;9.40;96.80
37285;DHT22;23172;53.550;9.964;2024-03-25T05:23:31;9.40;96.90
37285;DHT22;23172;53.550;9.964;2024-03-25T05:28:33;9.40;96.80
37285;DHT22;23172;53.550;9.964;2024-03-25T05:33:35;9.40;96.70
37285;DHT22;23172;53.550;9.964;2024-03-25T05:38:36;9.30;96.70
37285;DHT22;23172;53.550;9.964;2024-03-25T05:43:38;9.30;96.70
37285;DHT22;23172;53.550;9.964;2024-03-25T05:48:39;9.30;97.10
37285;DHT22;23172;53.550;9.964;2024-03-25T05:53:40;9.30;96.80
37285;DHT22;23172;53.550;9.964;2024-03-25T05:58:42;9.30;96.80
37285;DHT22;23172;53.550;9.964;2024-03-25T06:03:43;9.30;96.80
37285;DHT22;23172;53.550;9.964;2024-03-25T06:08:44;9.30;96.70
37285;DHT22;23172;53.550;9.964;2024-03-25T06:13:47;9.30;96.80
37285;DHT22;23172;53.550;9.964;2024-03-25T06:18:48;9.30;96.70
37285;DHT22;23172;53.550;9.964;2024-03-25T06:23:49;9.40;96.70
37285;DHT22;23172;53.550;9.964;2024-03-25T06:28:51;9.30;96.30
37285;DHT22;23172;53.550;9.964;2024-03-25T06:33:52;9.40;96.20
37285;DHT22;23172;53.550;9.964;2024-03-25T06:39:11;9.30;96.70
37285;DHT22;23172;53.550;9.964;2024-03-25T06:44:13;9.30;96.40
37285;DHT22;23172;53.550;9.964;2024-03-25T06:49:14;9.40;96.60
37285;DHT22;23172;53.550;9.964;2024-03-25T06:54:15;9.40;96.70
37285;DHT22;23172;53.550;9.964;2024-03-25T06:59:18;9.40;96.60
37285;DHT22;23172;53.550;9.964;2024-03-25T07:04:19;9.40;96.70
37285;DHT22;23172;53.550;9.964;2024-03-25T07:09:20;9.40;96.60
37285;DHT22;23172;53.550;9.964;2024-03-25T07:14:22;9.40;96.80
37285;DHT22;23172;53.550;9.964;2024-03-25T07:19:23;9.50;96.80
37285;DHT22;23172;53.550;9.964;2024-03-25T07:24:24;9.50;96.90
37285;DHT22;23172;53.550;9.964;2024-03-25T07:29:26;9.50;96.80
37285;DHT22;23172;53.550;9.964;2024-03-25T07:34:27;9.50;97.00
37285;DHT22;23172;53.550;9.964;2024-03-25T07:39:28;9.60;97.10
37285;DHT22;23172;53.550;9.964;2024-03-25T07:44:31;9.60;97.10
37285;DHT22;23172;53.550;9.964;2024-03-25T07:49:31;9.70;97.10
37285;DHT22;23172;53.550;9.964;2024-03-25T07:54:33;9.70;97.20
37285;DHT22;23172;53.550;9.964;2024-03-25T07:59:36;9.70;97.30
37285;DHT22;23172;53.550;9.964;2024-03-25T08:04:37;9.70;97.70
37285;DHT22;23172;53.550;9.964;2024-03-25T08:09:37;9.80;97.80
37285;DHT22;23172;53.550;9.964;2024-03-25T08:14:40;9.90;97.80
37285;DHT22;23172;53.550;9.964;2024-03-25T08:19:41;10.00;97.90
37285;DHT22;23172;53.550;9.964;2024-03-25T08:24:42;10.10;97.80
37285;DHT22;23172;53.550;9.964;2024-03-25T08:29:44;10.20;97.80
37285;DHT22;23172;53.550;9.964;2024-03-25T08:34:45;10.20;97.70
37285;DHT22;23172;53.550;9.964;2024-03-25T08:39:46;10.30;97.50
37285;DHT22;23172;53.550;9.964;2024-03-25T08:44:49;10.30;97.00
37285;DHT22;23172;53.550;9.964;2024-03-25T08:49:49;10.40;97.10
37285;DHT22;23172;53.550;9.964;2024-03-25T08:54:50;10.40;96.70
37285;DHT22;23172;53.550;9.964;2024-03-25T08:59:53;10.50;96.00
37285;DHT22;23172;53.550;9.964;2024-03-25T09:04:54;10.40;95.10
37285;DHT22;23172;53.550;9.964;2024-03-25T09:09:54;10.50;95.00
37285;DHT22;23172;53.550;9.964;2024-03-25T09:15:15;10.50;94.70
37285;DHT22;23172;53.550;9.964;2024-03-25T09:20:16;10.50;93.90
37285;DHT22;23172;53.550;9.964;2024-03-25T09:25:17;10.50;93.70
37285;DHT22;23172;53.550;9.964;2024-03-25T09:30:20;10.60;93.70
37285;DHT22;23172;53.550;9.964;2024-03-25T09:35:21;10.80;93.80
37285;DHT22;23172;53.550;9.964;2024-03-25T09:40:22;10.90;93.30
37285;DHT22;23172;53.550;9.964;2024-03-25T09:45:25;10.90;92.80
37285;DHT22;23172;53.550;9.964;2024-03-25T09:50:28;11.10;92.90
37285;DHT22;23172;53.550;9.964;2024-03-25T09:55:29;11.30;92.60
37285;DHT22;23172;53.550;9.964;2024-03-25T10:00:32;11.50;91.60
37285;DHT22;23172;53.550;9.964;2024-03-25T10:05:33;11.50;90.40
37285;DHT22;23172;53.550;9.964;2024-03-25T10:10:34;11.40;88.90
37285;DHT22;23172;53.550;9.964;2024-03-25T10:15:36;11.20;88.10
37285;DHT22;23172;53.550;9.964;2024-03-25T10:20:37;11.00;88.30
37285;DHT22;23172;53.550;9.964;2024-03-25T10:25:38;10.90;88.70
37285;DHT22;23172;53.550;9.964;2024-03-25T10:30:41;11.00;89.40
37285;DHT22;23172;53.550;9.964;2024-03-25T10:35:45;11.00;88.20
37285;DHT22;23172;53.550;9.964;2024-03-25T10:40:48;11.10;88.00
37285;DHT22;23172;53.550;9.964;2024-03-25T10:45:53;11.10;86.10
37285;DHT22;23172;53.550;9.964;2024-03-25T10:50:55;11.20;84.90
37285;DHT22;23172;53.550;9.964;2024-03-25T10:55:57;11.40;84.50
37285;DHT22;23172;53.550;9.964;2024-03-25T11:01:00;11.60;84.30
37285;DHT22;23172;53.550;9.964;2024-03-25T11:06:02;11.70;81.70
37285;DHT22;23172;53.550;9.964;2024-03-25T11:11:03;11.60;79.80
37285;DHT22;23172;53.550;9.964;2024-03-25T11:16:06;11.60;79.60
37285;DHT22;23172;53.550;9.964;2024-03-25T11:21:08;11.60;79.50
37285;DHT22;23172;53.550;9.964;2024-03-25T11:26:18;11.60;78.30
37285;DHT22;23172;53.550;9.964;2024-03-25T11:31:21;11.60;77.80
37285;DHT22;23172;53.550;9.964;2024-03-25T11:36:22;11.50;77.00
37285;DHT22;23172;53.550;9.964;2024-03-25T11:41:23;11.60;75.90
37285;DHT22;23172;53.550;9.964;2024-03-25T11:46:26;11.60;75.90
37285;DHT22;23172;53.550;9.964;2024-03-25T11:51:27;11.60;76.00
37285;DHT22;23172;53.550;9.964;2024-03-25T11:56:28;11.70;75.20
37285;DHT22;23172;53.550;9.964;2024-03-25T12:01:31;11.70;74.80
37285;DHT22;23172;53.550;9.964;2024-03-25T12:06:32;11.90;74.50
37285;DHT22;23172;53.550;9.964;2024-03-25T12:11:33;12.10;74.00
37285;DHT22;23172;53.550;9.964;2024-03-25T12:16:35;12.20;73.10
37285;DHT22;23172;53.550;9.964;2024-03-25T12:21:37;12.20;72.70
37285;DHT22;23172;53.550;9.964;2024-03-25T12:26:38;12.30;72.50
37285;DHT22;23172;53.550;9.964;2024-03-25T12:31:40;12.30;71.90
37285;DHT22;23172;53.550;9.964;2024-03-25T12:36:41;12.30;71.30
37285;DHT22;23172;53.550;9.964;2024-03-25T12:41:42;12.20;71.10
37285;DHT22;23172;53.550;9.964;2024-03-25T12:46:44;12.20;71.10
37285;DHT22;23172;53.550;9.964;2024-03-25T12:51:45;12.20;71.30
37285;DHT22;23172;53.550;9.964;2024-03-25T12:56:46;12.20;71.30
37285;DHT22;23172;53.550;9.964;2024-03-25T13:01:48;12.10;71.60
37285;DHT22;23172;53.550;9.964;2024-03-25T13:06:49;12.10;71.70
37285;DHT22;23172;53.550;9.964;2024-03-25T13:11:50;12.00;71.30
37285;DHT22;23172;53.550;9.964;2024-03-25T13:16:52;12.00;71.30
37285;DHT22;23172;53.550;9.964;2024-03-25T13:21:55;11.90;71.40
37285;DHT22;23172;53.550;9.964;2024-03-25T13:26:56;11.90;71.20
37285;DHT22;23172;53.550;9.964;2024-03-25T13:31:58;11.90;71.10
37285;DHT22;23172;53.550;9.964;2024-03-25T13:36:59;11.90;71.00
37285;DHT22;23172;53.550;9.964;2024-03-25T13:42:00;11.90;72.40
37285;DHT22;23172;53.550;9.964;2024-03-25T13:47:02;12.00;72.70
37285;DHT22;23172;53.550;9.964;2024-03-25T13:52:03;12.00;72.40
37285;DHT22;23172;53.550;9.964;2024-03-25T13:57:04;11.90;72.70
37285;DHT22;23172;53.550;9.964;2024-03-25T14:02:07;11.90;72.70
37285;DHT22;23172;53.550;9.964;2024-03-25T14:07:07;12.00;72.50
37285;DHT22;23172;53.550;9.964;2024-03-25T14:12:08;12.00;72.20
37285;DHT22;23172;53.550;9.964;2024-03-25T14:17:11;12.00;72.00
37285;DHT22;23172;53.550;9.964;2024-03-25T14:22:12;12.00;71.80
37285;DHT22;23172;53.550;9.964;2024-03-25T14:27:12;12.00;72.40
37285;DHT22;23172;53.550;9.964;2024-03-25T14:32:15;12.00;71.50
37285;DHT22;23172;53.550;9.964;2024-03-25T14:37:19;12.00;71.20
37285;DHT22;23172;53.550;9.964;2024-03-25T14:42:20;12.00;71.30
37285;DHT22;23172;53.550;9.964;2024-03-25T14:47:22;12.00;71.30
37285;DHT22;23172;53.550;9.964;2024-03-25T14:52:23;12.00;70.80
37285;DHT22;23172;53.550;9.964;2024-03-25T14:57:24;12.00;70.50
37285;DHT22;23172;53.550;9.964;2024-03-25T15:02:26;12.00;70.30
37285;DHT22;23172;53.550;9.964;2024-03-25T15:07:27;12.00;70.40
37285;DHT22;23172;53.550;9.964;2024-03-25T15:12:28;12.00;71.10
37285;DHT22;23172;53.550;9.964;2024-03-25T15:17:30;12.00;70.20
37285;DHT22;23172;53.550;9.964;2024-03-25T15:22:31;12.10;69.90
37285;DHT22;23172;53.550;9.964;2024-03-25T15:27:32;12.10;69.40
37285;DHT22;23172;53.550;9.964;2024-03-25T15:32:35;12.10;69.00
37285;DHT22;23172;53.550;9.964;2024-03-25T15:37:35;12.10;68.80
37285;DHT22;23172;53.550;9.964;2024-03-25T15:42:36;12.00;68.80
37285;DHT22;23172;53.550;9.964;2024-03-25T15:47:39;12.00;68.50
37285;DHT22;23172;53.550;9.964;2024-03-25T15:52:40;12.00;68.10
37285;DHT22;23172;53.550;9.964;2024-03-25T15:57:41;12.00;67.90
37285;DHT22;23172;53.550;9.964;2024-03-25T16:02:43;12.00;67.70
37285;DHT22;23172;53.550;9.964;2024-03-25T16:07:44;11.90;67.30
37285;DHT22;23172;53.550;9.964;2024-03-25T16:12:45;11.90;67.20
37285;DHT22;23172;53.550;9.964;2024-03-25T16:17:47;11.90;66.90
37285;DHT22;23172;53.550;9.964;2024-03-25T16:22:48;11.90;66.80
37285;DHT22;23172;53.550;9.964;2024-03-25T16:27:50;11.90;66.60
37285;DHT22;23172;53.550;9.964;2024-03-25T16:32:52;11.90;66.60
37285;DHT22;23172;53.550;9.964;2024-03-25T16:37:53;11.90;66.40
37285;DHT22;23172;53.550;9.964;2024-03-25T16:42:54;11.90;66.30
37285;DHT22;23172;53.550;9.964;2024-03-25T16:47:56;11.90;66.30
37285;DHT22;23172;53.550;9.964;2024-03-25T16:52:57;11.90;67.00
37285;DHT22;23172;53.550;9.964;2024-03-25T16:57:58;11.90;65.80
37285;DHT22;23172;53.550;9.964;2024-03-25T17:03:00;11.90;65.70
37285;DHT22;23172;53.550;9.964;2024-03-25T17:08:01;11.80;65.60
37285;DHT22;23172;53.550;9.964;2024-03-25T17:13:02;11.80;65.60
37285;DHT22;23172;53.550;9.964;2024-03-25T17:18:09;11.80;65.60
37285;DHT22;23172;53.550;9.964;2024-03-25T17:23:10;11.70;65.50
37285;DHT22;23172;53.550;9.964;2024-03-25T17:28:11;11.60;65.40
37285;DHT22;23172;53.550;9.964;2024-03-25T17:33:13;11.60;65.40
37285;DHT22;23172;53.550;9.964;2024-03-25T17:38:15;11.50;65.40
37285;DHT22;23172;53.550;9.964;2024-03-25T17:43:16;11.50;65.50
37285;DHT22;23172;53.550;9.964;2024-03-25T17:48:19;11.40;65.60
37285;DHT22;23172;53.550;9.964;2024-03-25T17:53:20;11.40;65.70
37285;DHT22;23172;53.550;9.964;2024-03-25T17:58:21;11.40;66.00
37285;DHT22;23172;53.550;9.964;2024-03-25T18:03:24;11.30;66.20
37285;DHT22;23172;53.550;9.964;2024-03-25T18:08:25;11.30;66.50
37285;DHT22;23172;53.550;9.964;2024-03-25T18:13:26;11.30;66.70
37285;DHT22;23172;53.550;9.964;2024-03-25T18:18:29;11.30;66.80
37285;DHT22;23172;53.550;9.964;2024-03-25T18:23:30;11.30;67.00
37285;DHT22;23172;53.550;9.964;2024-03-25T18:28:30;11.20;67.10
37285;DHT22;23172;53.550;9.964;2024-03-25T18:33:33;11.20;67.20
37285;DHT22;23172;53.550;9.964;2024-03-25T18:38:34;11.20;67.40
37285;DHT22;23172;53.550;9.964;2024-03-25T18:43:34;11.20;67.50
37285;DHT22;23172;53.550;9.964;2024-03-25T18:48:37;11.10;67.50
37285;DHT22;23172;53.550;9.964;2024-03-25T18:53:38;11.10;67.50
37285;DHT22;23172;53.550;9.964;2024-03-25T18:58:40;11.10;67.50
37285;DHT22;23172;53.550;9.964;2024-03-25T19:03:42;11.10;67.70
37285;DHT22;23172;53.550;9.964;2024-03-25T19:08:43;11.00;67.80
37285;DHT22;23172;53.550;9.964;2024-03-25T19:13:45;10.90;67.90
37285;DHT22;23172;53.550;9.964;2024-03-25T19:18:47;10.90;68.20
37285;DHT22;23172;53.550;9.964;2024-03-25T19:23:48;11.00;68.30
37285;DHT22;23172;53.550;9.964;2024-03-25T19:28:49;10.90;68.30
37285;DHT22;23172;53.550;9.964;2024-03-25T19:33:51;10.90;68.50
37285;DHT22;23172;53.550;9.964;2024-03-25T19:38:54;10.90;68.70
37285;DHT22;23172;53.550;9.964;2024-03-25T19:43:56;10.90;68.90
37285;DHT22;23172;53.550;9.964;2024-03-25T19:48:59;10.80;69.20
37285;DHT22;23172;53.550;9.964;2024-03-25T19:54:00;10.80;70.20
37285;DHT22;23172;53.550;9.964;2024-03-25T19:59:01;10.70;69.60
37285;DHT22;23172;53.550;9.964;2024-03-25T20:04:06;10.70;69.70
37285;DHT22;23172;53.550;9.964;2024-03-25T20:09:12;10.60;69.90
37285;DHT22;23172;53.550;9.964;2024-03-25T20:14:16;10.60;70.10
37285;DHT22;23172;53.550;9.964;2024-03-25T20:19:18;10.60;70.20
37285;DHT22;23172;53.550;9.964;2024-03-25T20:24:19;10.50;70.40
37285;DHT22;23172;53.550;9.964;2024-03-25T20:29:20;10.40;70.40
37285;DHT22;23172;53.550;9.964;2024-03-25T20:34:25;10.40;70.60
37285;DHT22;23172;53.550;9.964;2024-03-25T20:39:26;10.40;70.80
37285;DHT22;23172;53.550;9.964;2024-03-25T20:44:27;10.40;71.00
37285;DHT22;23172;53.550;9.964;2024-03-25T20:49:30;10.40;71.10
37285;DHT22;23172;53.550;9.964;2024-03-25T20:54:31;10.30;71.20
37285;DHT22;23172;53.550;9.964;2024-03-25T20:59:32;10.30;71.30
37285;DHT22;23172;53.550;9.964;2024-03-25T21:04:34;10.20;71.30
37285;DHT22;23172;53.550;9.964;2024-03-25T21:09:35;10.20;71.60
37285;DHT22;23172;53.550;9.964;2024-03-25T21:14:36;10.20;71.70
37285;DHT22;23172;53.550;9.964;2024-03-25T21:19:38;10.10;72.00
37285;DHT22;23172;53.550;9.964;2024-03-25T21:24:39;10.20;72.10
37285;DHT22;23172;53.550;9.964;2024-03-25T21:29:40;10.20;72.30
37285;DHT22;23172;53.550;9.964;2024-03-25T21:34:42;10.10;72.50
37285;DHT22;23172;53.550;9.964;2024-03-25T21:39:43;10.10;72.70
37285;DHT22;23172;53.550;9.964;2024-03-25T21:44:44;10.10;73.00
37285;DHT22;23172;53.550;9.964;2024-03-25T21:49:46;10.00;73.10
37285;DHT22;23172;53.550;9.964;2024-03-25T21:54:48;10.00;73.40
37285;DHT22;23172;53.550;9.964;2024-03-25T21:59:48;10.00;73.50
37285;DHT22;23172;53.550;9.964;2024-03-25T22:04:51;9.90;73.60
37285;DHT22;23172;53.550;9.964;2024-03-25T22:09:52;9.90;73.70
37285;DHT22;23172;53.550;9.964;2024-03-25T22:14:53;9.90;73.90
37285;DHT22;23172;53.550;9.964;2024-03-25T22:19:55;9.80;74.10
37285;DHT22;23172;53.550;9.964;2024-03-25T22:24:56;9.80;74.30
37285;DHT22;23172;53.550;9.964;2024-03-25T22:29:57;9.80;74.40
37285;DHT22;23172;53.550;9.964;2024-03-25T22:34:59;9.80;74.60
37285;DHT22;23172;53.550;9.964;2024-03-25T22:40:00;9.80;74.50
37285;DHT22;23172;53.550;9.964;2024-03-25T22:45:01;9.80;74.50
37285;DHT22;23172;53.550;9.964;2024-03-25T22:50:04;9.80;74.40
37285;DHT22;23172;53.550;9.964;2024-03-25T22:55:06;9.80;74.60
37285;DHT22;23172;53.550;9.964;2024-03-25T23:00:09;9.70;74.80
37285;DHT22;23172;53.550;9.964;2024-03-25T23:05:11;9.70;74.90
37285;DHT22;23172;53.550;9.964;2024-03-25T23:10:12;9.70;75.10
37285;DHT22;23172;53.550;9.964;2024-03-25T23:15:13;9.60;75.00
37285;DHT22;23172;53.550;9.964;2024-03-25T23:20:16;9.60;75.30
37285;DHT22;23172;53.550;9.964;2024-03-25T23:25:16;9.60;75.40
37285;DHT22;23172;53.550;9.964;2024-03-25T23:30:17;9.60;75.40
37285;DHT22;23172;53.550;9.964;2024-03-25T23:35:20;9.60;75.40
37285;DHT22;23172;53.550;9.964;2024-03-25T23:40:21;9.60;75.30
37285;DHT22;23172;53.550;9.964;2024-03-25T23:45:22;9.50;75.10
37285;DHT22;23172;53.550;9.964;2024-03-25T23:50:24;9.50;75.10
37285;DHT22;23172;53.550;9.964;2024-03-25T23:55:25;9.50;75.20
